Time;durP1;ratioP1;P1;durP2;ratioP2;P2;SDS_P1;SDS_P2;PMS_P1;PMS_P2;Temp;Humidity;BMP_temperature;BMP_pressure;BME280_temperature;BME280_humidity;BME280_pressure;Samples;Min_cycle;Max_cycle;Signal;HPM_P1;HPM_P2
2022/12/11 00:02:08;;;;;;;5.93;3.20;;;179.80;2252.80;;;;;;4974594;28;20201;-59
2022/12/11 00:04:34;;;;;;;2.53;1.23;;;179.80;2252.80;;;;;;4974597;28;20757;-65
2022/12/11 00:07:00;;;;;;;15.85;6.60;;;179.90;2252.80;;;;;;4974764;28;20035;-64
2022/12/11 00:09:26;;;;;;;2.63;1.48;;;179.80;2252.80;;;;;;4974747;28;20030;-66
2022/12/11 00:11:52;;;;;;;4.90;2.63;;;179.70;2252.80;;;;;;4974979;28;20085;-66
2022/12/11 00:14:17;;;;;;;5.97;3.13;;;179.70;2252.80;;;;;;4974514;28;20023;-66
2022/12/11 00:16:43;;;;;;;8.60;4.28;;;179.80;2252.80;;;;;;4974425;28;20049;-60
2022/12/11 00:19:09;;;;;;;3.95;1.55;;;179.80;2252.80;;;;;;4974689;28;20110;-60
2022/12/11 00:21:34;;;;;;;14.40;5.88;;;179.90;2252.80;;;;;;4974482;28;20466;-59
2022/12/11 00:24:00;;;;;;;3.40;1.58;;;180.00;2252.80;;;;;;4974516;28;20031;-62
2022/12/11 00:26:26;;;;;;;10.35;6.07;;;180.00;2252.80;;;;;;4974500;28;20051;-59
2022/12/11 00:28:56;;;;;;;2.38;1.60;;;179.90;2252.80;;;;;;4974488;28;20073;-61
2022/12/11 00:31:22;;;;;;;3.80;2.17;;;179.90;2252.80;;;;;;4974421;28;20069;-60
2022/12/11 00:33:50;;;;;;;4.95;2.50;;;179.90;2252.80;;;;;;4974141;28;20201;-64
2022/12/11 00:36:19;;;;;;;3.38;2.00;;;179.80;2252.80;;;;;;4974400;28;20101;-64
2022/12/11 00:38:45;;;;;;;4.80;2.63;;;179.80;2252.80;;;;;;4983387;28;20022;-60
2022/12/11 00:41:11;;;;;;;4.75;2.63;;;179.80;2252.80;;;;;;4976504;28;20027;-67
2022/12/11 00:43:37;;;;;;;13.05;6.38;;;180.00;2252.80;;;;;;4974008;28;20081;-64
2022/12/11 00:46:03;;;;;;;3.67;1.50;;;180.10;2252.80;;;;;;4973795;28;20055;-61
2022/12/11 00:48:29;;;;;;;19.08;10.15;;;180.00;2252.80;;;;;;4980668;28;20026;-58
2022/12/11 00:50:55;;;;;;;4.65;2.40;;;180.00;2252.80;;;;;;4982059;28;20042;-64
2022/12/11 00:53:20;;;;;;;2.83;1.30;;;180.00;2252.80;;;;;;4982044;28;20038;-68
2022/12/11 00:55:46;;;;;;;3.22;1.08;;;180.00;2252.80;;;;;;4979933;28;20043;-65
2022/12/11 00:58:12;;;;;;;2.22;1.15;;;180.00;2252.80;;;;;;4981522;28;20022;-66
2022/12/11 01:00:39;;;;;;;1.17;0.82;;;180.00;2252.80;;;;;;4964623;28;20038;-63
2022/12/11 01:03:05;;;;;;;1.23;0.82;;;180.00;2252.80;;;;;;4981390;28;20026;-66
2022/12/11 01:05:31;;;;;;;5.05;1.95;;;179.90;2252.80;;;;;;4980804;28;20035;-65
2022/12/11 01:07:57;;;;;;;6.22;4.90;;;180.00;2252.80;;;;;;4981122;28;20029;-60
2022/12/11 01:10:23;;;;;;;3.85;2.30;;;180.00;2252.80;;;;;;4983174;28;20034;-59
2022/12/11 01:12:53;;;;;;;7.28;4.88;;;180.00;2252.80;;;;;;4981425;28;20031;-60
2022/12/11 01:15:20;;;;;;;4.82;3.47;;;180.10;2252.80;;;;;;4980935;28;20037;-61
2022/12/11 01:17:45;;;;;;;5.00;2.08;;;204.80;2252.80;;;;;;4982504;28;20476;-59
2022/12/11 01:20:11;;;;;;;7.32;3.67;;;180.10;2252.80;;;;;;4981674;28;20118;-62
2022/12/11 01:22:37;;;;;;;2.83;1.52;;;204.80;2252.80;;;;;;4981288;28;20022;-59
2022/12/11 01:25:03;;;;;;;1.80;0.98;;;180.10;2252.80;;;;;;4976270;28;20599;-65
2022/12/11 01:27:29;;;;;;;2.15;1.23;;;204.90;2252.80;;;;;;4982562;28;20089;-64
2022/12/11 01:29:55;;;;;;;3.92;1.95;;;204.90;2252.80;;;;;;4981841;28;20451;-58
2022/12/11 01:32:21;;;;;;;5.18;2.75;;;204.80;2252.80;;;;;;4980683;28;20062;-59
2022/12/11 01:34:47;;;;;;;2.53;1.52;;;204.90;2252.80;;;;;;4982248;28;20033;-60
2022/12/11 01:37:13;;;;;;;4.00;2.20;;;205.00;2252.80;;;;;;4981583;28;20593;-62
2022/12/11 01:39:39;;;;;;;4.43;2.40;;;205.00;2252.80;;;;;;4981138;28;20078;-58
2022/12/11 01:42:09;;;;;;;8.80;3.88;;;205.10;2252.80;;;;;;4981963;28;20540;-56
2022/12/11 01:44:34;;;;;;;3.40;1.88;;;205.00;2252.80;;;;;;4981344;28;20466;-63
2022/12/11 01:47:00;;;;;;;3.30;1.23;;;204.90;2252.80;;;;;;4980227;28;20018;-58
2022/12/11 01:49:28;;;;;;;8.95;6.25;;;204.90;2252.80;;;;;;4977764;28;20039;-67
2022/12/11 01:52:08;;;;;;;5.10;1.88;;;204.90;2252.80;;;;;;4979903;28;20034;-59
2022/12/11 01:54:34;;;;;;;5.82;2.95;;;204.80;2252.80;;;;;;4992136;28;20037;-58
2022/12/11 01:57:11;;;;;;;2.17;1.25;;;204.80;2252.80;;;;;;4991865;28;20051;-64
2022/12/11 01:59:40;;;;;;;2.72;1.55;;;204.80;2252.80;;;;;;4990145;28;20495;-60
2022/12/11 02:02:13;;;;;;;5.50;2.85;;;204.80;2252.80;;;;;;4982183;28;20502;-63
2022/12/11 02:04:41;;;;;;;5.00;3.40;;;204.90;2252.80;;;;;;4975462;28;20397;-58
2022/12/11 02:07:06;;;;;;;4.07;1.55;;;204.80;2252.80;;;;;;4972467;28;20062;-58
2022/12/11 02:09:35;;;;;;;2.83;1.80;;;204.80;2252.80;;;;;;4973883;28;20490;-59
2022/12/11 02:12:27;;;;;;;3.05;1.60;;;204.80;2252.80;;;;;;4978242;28;20026;-65
2022/12/11 02:15:16;;;;;;;7.82;3.33;;;180.10;2252.80;;;;;;4981504;28;20512;-65
2022/12/11 02:17:50;;;;;;;6.93;3.05;;;180.10;2252.80;;;;;;4976963;28;20034;-65
2022/12/11 02:20:20;;;;;;;4.35;1.88;;;180.10;2252.80;;;;;;4981377;28;20049;-65
2022/12/11 02:23:00;;;;;;;2.97;1.75;;;204.80;2252.80;;;;;;4981799;28;20508;-58
2022/12/11 02:25:26;;;;;;;15.95;10.70;;;180.10;2252.80;;;;;;4980862;28;20019;-63
2022/12/11 02:28:13;;;;;;;4.60;2.05;;;180.10;2252.80;;;;;;4980863;28;20130;-58
2022/12/11 02:30:40;;;;;;;5.15;2.25;;;204.80;2252.80;;;;;;4952800;29;20066;-58
2022/12/11 02:33:08;;;;;;;5.07;4.45;;;204.80;2252.80;;;;;;4952496;29;20025;-64
2022/12/11 02:35:38;;;;;;;1.85;1.30;;;204.80;2252.80;;;;;;4952559;29;20035;-61
2022/12/11 02:38:15;;;;;;;7.35;3.85;;;204.80;2252.80;;;;;;4952815;29;20094;-66
2022/12/11 02:40:43;;;;;;;3.15;1.33;;;180.10;2252.80;;;;;;4952635;29;20079;-65
2022/12/11 02:43:12;;;;;;;2.75;1.35;;;180.10;2252.80;;;;;;4952791;28;20062;-60
2022/12/11 02:45:40;;;;;;;15.68;9.85;;;180.10;2252.80;;;;;;4952172;29;20059;-59
2022/12/11 02:48:09;;;;;;;2.83;1.58;;;180.10;2252.80;;;;;;4952378;29;20051;-57
2022/12/11 02:50:40;;;;;;;8.38;5.03;;;180.00;2252.80;;;;;;4952464;29;20031;-58
2022/12/11 02:53:07;;;;;;;2.08;1.20;;;180.00;2252.80;;;;;;4952569;29;20039;-59
2022/12/11 02:55:36;;;;;;;4.38;2.17;;;179.90;2252.80;;;;;;4952614;29;20447;-65
2022/12/11 02:58:07;;;;;;;14.05;11.63;;;180.00;2252.80;;;;;;4952460;29;20035;-61
2022/12/11 03:00:33;;;;;;;6.65;3.30;;;180.00;2252.80;;;;;;4952243;28;20377;-65
2022/12/11 03:02:59;;;;;;;1.83;1.20;;;180.00;2252.80;;;;;;4952262;29;20105;-62
2022/12/11 03:05:26;;;;;;;2.90;1.90;;;179.80;2252.80;;;;;;4952170;29;20478;-59
2022/12/11 03:07:51;;;;;;;4.07;1.73;;;179.80;2252.80;;;;;;4952581;29;20049;-63
2022/12/11 03:10:18;;;;;;;3.60;1.30;;;179.90;2252.80;;;;;;4952114;29;20043;-62
2022/12/11 03:12:48;;;;;;;2.22;1.20;;;179.80;2252.80;;;;;;4952163;29;20030;-61
2022/12/11 03:15:17;;;;;;;3.15;1.45;;;179.70;2252.80;;;;;;4951893;28;20367;-59
2022/12/11 03:17:59;;;;;;;3.65;2.15;;;179.70;2252.80;;;;;;4952510;28;20054;-65
2022/12/11 03:20:43;;;;;;;3.50;1.63;;;179.70;2252.80;;;;;;4952124;29;20023;-61
2022/12/11 03:23:31;;;;;;;2.85;2.00;;;179.70;2252.80;;;;;;4952193;29;20129;-67
2022/12/11 03:26:02;;;;;;;3.28;1.38;;;179.50;2252.80;;;;;;4952220;29;20032;-67
2022/12/11 03:28:46;;;;;;;2.58;1.20;;;179.50;2252.80;;;;;;4952003;28;20054;-68
2022/12/11 03:31:33;;;;;;;2.13;1.35;;;179.50;2252.80;;;;;;4951775;29;20086;-68
2022/12/11 03:34:02;;;;;;;4.32;2.15;;;179.40;2252.80;;;;;;4952082;28;20034;-67
2022/12/11 03:36:35;;;;;;;2.78;1.98;;;179.40;2252.80;;;;;;4952084;29;20039;-68
2022/12/11 03:39:08;;;;;;;4.15;2.10;;;179.20;2252.80;;;;;;4952340;29;20023;-68
2022/12/11 03:41:37;;;;;;;2.97;1.38;;;179.20;2252.80;;;;;;4951939;29;20031;-59
2022/12/11 03:44:03;;;;;;;3.80;1.67;;;154.50;2252.80;;;;;;4951960;29;20478;-69
2022/12/11 03:46:36;;;;;;;3.20;1.70;;;154.50;2252.80;;;;;;4951852;29;20027;-62
2022/12/11 03:49:07;;;;;;;4.43;2.45;;;154.50;2252.80;;;;;;4952120;29;20098;-70
2022/12/11 03:51:34;;;;;;;8.68;3.92;;;154.50;2252.80;;;;;;4951776;29;20502;-59
2022/12/11 03:54:01;;;;;;;3.08;1.38;;;154.40;2252.80;;;;;;4951939;29;20035;-68
2022/12/11 03:56:30;;;;;;;5.53;2.38;;;154.50;2252.80;;;;;;4951673;29;20058;-69
2022/12/11 03:58:55;;;;;;;6.25;2.47;;;154.30;2252.80;;;;;;4951800;29;20427;-60
2022/12/11 04:01:21;;;;;;;1.83;0.90;;;154.30;2252.80;;;;;;4951666;29;20575;-64
2022/12/11 04:03:47;;;;;;;10.10;6.60;;;154.40;2252.80;;;;;;4951722;29;20106;-64
2022/12/11 04:06:13;;;;;;;1.58;0.85;;;154.50;2252.80;;;;;;4951905;29;20887;-65
2022/12/11 04:08:38;;;;;;;1.63;0.90;;;154.40;2252.80;;;;;;4951902;29;20042;-65
2022/12/11 04:15:00;;;;;;;1.55;1.08;;;154.20;2252.80;;;;;;4951864;28;20039;-68
2022/12/11 04:16:34;;;;;;;3.13;1.58;;;154.20;2252.80;;;;;;4951320;29;20371;-59
2022/12/11 04:24:27;;;;;;;2.72;1.30;;;154.10;2252.80;;;;;;4951713;29;20517;-67
2022/12/11 04:26:53;;;;;;;3.60;1.85;;;154.00;2252.80;;;;;;4952006;29;20035;-68
2022/12/11 04:29:19;;;;;;;3.38;1.80;;;154.00;2252.80;;;;;;4951510;28;20039;-60
2022/12/11 04:31:45;;;;;;;1.83;1.10;;;154.00;2252.80;;;;;;4951299;29;20035;-65
2022/12/11 04:34:11;;;;;;;4.10;3.67;;;154.00;2252.80;;;;;;4951467;29;20414;-64
2022/12/11 04:36:37;;;;;;;3.10;1.00;;;154.00;2252.80;;;;;;4951071;29;20035;-65
2022/12/11 04:39:04;;;;;;;1.15;0.95;;;153.90;2252.80;;;;;;4951409;29;20019;-69
2022/12/11 04:41:30;;;;;;;2.00;1.20;;;153.90;2252.80;;;;;;4952082;28;20066;-66
2022/12/11 04:43:56;;;;;;;1.90;1.10;;;153.80;2252.80;;;;;;4954747;29;20471;-60
2022/12/11 04:46:23;;;;;;;1.55;1.10;;;153.80;2252.80;;;;;;4955039;29;20069;-60
2022/12/11 04:48:50;;;;;;;4.50;2.22;;;153.80;2252.80;;;;;;4954781;29;20090;-64
2022/12/11 04:51:17;;;;;;;6.78;3.47;;;153.80;2252.80;;;;;;4954563;29;20031;-65
2022/12/11 04:53:43;;;;;;;2.05;1.05;;;153.90;2252.80;;;;;;4954780;28;20055;-65
2022/12/11 04:56:13;;;;;;;1.85;1.23;;;153.80;2252.80;;;;;;4954510;28;20517;-62
2022/12/11 04:58:39;;;;;;;4.40;2.25;;;153.80;2252.80;;;;;;4954751;29;20027;-61
2022/12/11 05:01:14;;;;;;;1.30;0.90;;;154.00;2252.80;;;;;;4954210;29;20027;-66
2022/12/11 05:03:40;;;;;;;2.92;0.98;;;154.20;2252.80;;;;;;4954660;28;20059;-66
2022/12/11 05:06:07;;;;;;;52.05;41.75;;;153.70;2252.80;;;;;;4954251;29;20043;-66
2022/12/11 05:08:35;;;;;;;4.50;2.53;;;153.80;2252.80;;;;;;4954367;29;20027;-66
2022/12/11 05:11:03;;;;;;;1.50;1.00;;;153.80;2252.80;;;;;;4954243;29;20048;-66
2022/12/11 05:13:29;;;;;;;2.28;0.95;;;153.80;2252.80;;;;;;4954187;29;20486;-65
2022/12/11 05:15:55;;;;;;;1.42;0.90;;;153.70;2252.80;;;;;;4954257;29;20032;-65
2022/12/11 05:18:21;;;;;;;0.98;0.88;;;153.60;2252.80;;;;;;4954203;29;20078;-60
2022/12/11 05:20:58;;;;;;;3.42;1.60;;;153.70;2252.80;;;;;;4954192;29;20023;-67
2022/12/11 05:23:24;;;;;;;1.75;1.30;;;153.60;2252.80;;;;;;4954410;29;20237;-68
2022/12/11 05:25:55;;;;;;;4.22;1.95;;;153.70;2252.80;;;;;;4954244;29;20030;-59
2022/12/11 05:28:23;;;;;;;2.10;1.10;;;153.60;2252.80;;;;;;4954171;29;20432;-67
2022/12/11 05:30:54;;;;;;;2.25;1.20;;;128.90;2252.80;;;;;;4954025;28;20051;-58
2022/12/11 05:33:20;;;;;;;2.53;1.33;;;128.70;2252.80;;;;;;4953945;28;20038;-67
2022/12/11 05:35:47;;;;;;;1.83;0.90;;;128.90;2252.80;;;;;;4953492;28;20031;-59
2022/12/11 05:38:13;;;;;;;3.92;1.75;;;128.90;2252.80;;;;;;4954029;29;20538;-64
2022/12/11 05:40:38;;;;;;;2.63;1.30;;;128.80;2252.80;;;;;;4954066;29;20108;-68
2022/12/11 05:43:04;;;;;;;4.05;1.23;;;128.90;2252.80;;;;;;4953635;29;20027;-58
2022/12/11 05:45:29;;;;;;;4.18;1.63;;;128.80;2252.80;;;;;;4954002;29;20039;-58
2022/12/11 05:47:55;;;;;;;0.90;0.73;;;128.80;2252.80;;;;;;4953525;29;20498;-67
2022/12/11 05:50:21;;;;;;;2.90;1.08;;;128.90;2252.80;;;;;;4953645;29;20047;-68
2022/12/11 05:52:47;;;;;;;2.65;1.35;;;128.80;2252.80;;;;;;4953362;28;20034;-59
2022/12/11 05:55:12;;;;;;;2.33;1.00;;;128.80;2252.80;;;;;;4953569;29;20035;-58
2022/12/11 05:57:38;;;;;;;2.15;0.95;;;128.80;2252.80;;;;;;4953553;29;20062;-58
2022/12/11 06:00:05;;;;;;;2.08;1.10;;;128.80;2252.80;;;;;;4953442;29;20475;-60
2022/12/11 06:02:33;;;;;;;1.90;1.17;;;128.80;2252.80;;;;;;4953427;29;20511;-59
2022/12/11 06:04:58;;;;;;;2.70;1.50;;;128.80;2252.80;;;;;;4953493;28;20047;-67
2022/12/11 06:07:24;;;;;;;4.90;1.92;;;128.80;2252.80;;;;;;4953099;29;20159;-66
2022/12/11 06:09:50;;;;;;;9.25;8.38;;;128.70;2252.80;;;;;;4953439;29;20083;-59
2022/12/11 06:12:15;;;;;;;4.53;2.20;;;128.80;2252.80;;;;;;4953177;29;20023;-68
2022/12/11 06:14:41;;;;;;;2.28;1.30;;;128.80;2252.80;;;;;;4936014;29;20175;-68
2022/12/11 06:17:07;;;;;;;2.38;1.45;;;128.80;2252.80;;;;;;4953044;29;20031;-59
2022/12/11 06:19:33;;;;;;;3.03;1.90;;;128.80;2252.80;;;;;;4953100;28;20566;-60
2022/12/11 06:21:58;;;;;;;3.67;2.00;;;128.90;2252.80;;;;;;4952832;29;20035;-66
2022/12/11 06:24:24;;;;;;;5.97;3.28;;;128.90;2252.80;;;;;;4953240;29;20027;-60
2022/12/11 06:26:50;;;;;;;91.00;52.30;;;153.60;2252.80;;;;;;4953225;29;20458;-59
2022/12/11 06:29:15;;;;;;;16.67;8.82;;;128.90;2252.80;;;;;;4952890;29;20034;-67
2022/12/11 06:31:41;;;;;;;23.40;20.98;;;128.90;2252.80;;;;;;4952880;29;20067;-67
2022/12/11 06:34:08;;;;;;;24.45;17.70;;;128.90;2252.80;;;;;;4952698;28;20027;-59
2022/12/11 06:36:33;;;;;;;4.15;3.55;;;128.90;2252.80;;;;;;4952852;29;20524;-67
2022/12/11 06:38:59;;;;;;;3.58;1.85;;;128.90;2252.80;;;;;;4953037;29;20470;-61
2022/12/11 06:41:25;;;;;;;3.47;2.05;;;128.90;2252.80;;;;;;4952821;29;20478;-60
2022/12/11 06:43:50;;;;;;;3.65;1.98;;;128.90;2252.80;;;;;;4952664;29;20028;-67
2022/12/11 06:46:18;;;;;;;3.83;2.45;;;153.60;2252.80;;;;;;4952632;29;20067;-59
2022/12/11 06:48:45;;;;;;;57.25;25.45;;;153.60;2252.80;;;;;;4952272;29;20023;-61
2022/12/11 06:51:13;;;;;;;7.82;4.57;;;153.60;2252.80;;;;;;4952507;28;20043;-67
2022/12/11 06:53:39;;;;;;;12.80;6.65;;;153.60;2252.80;;;;;;4952531;29;20038;-59
2022/12/11 06:56:11;;;;;;;25.17;13.18;;;153.70;2252.80;;;;;;4952498;28;20126;-58
2022/12/11 06:58:37;;;;;;;20.77;14.13;;;153.70;2252.80;;;;;;4952317;29;20482;-67
2022/12/11 07:01:04;;;;;;;97.38;48.30;;;153.70;2252.80;;;;;;4952362;29;20102;-60
2022/12/11 07:03:30;;;;;;;16.33;10.13;;;153.60;2252.80;;;;;;4952387;29;20065;-66
2022/12/11 07:06:01;;;;;;;59.33;49.10;;;128.90;2252.80;;;;;;4951707;28;20074;-59
2022/12/11 07:08:28;;;;;;;59.53;45.67;;;128.90;2252.80;;;;;;4952306;28;20423;-58
2022/12/11 07:10:53;;;;;;;7.10;4.85;;;128.90;2252.80;;;;;;4952644;29;20043;-60
2022/12/11 07:13:31;;;;;;;16.48;12.75;;;128.90;2252.80;;;;;;4962700;29;20039;-67
2022/12/11 07:15:59;;;;;;;7.43;3.20;;;153.60;2252.80;;;;;;4937893;29;20031;-60
2022/12/11 07:18:25;;;;;;;9.77;5.90;;;153.60;2252.80;;;;;;4955009;29;20481;-63
2022/12/11 07:20:51;;;;;;;5.43;3.58;;;153.60;2252.80;;;;;;4955057;29;20027;-59
2022/12/11 07:23:17;;;;;;;5.05;3.60;;;128.90;2252.80;;;;;;4953343;29;20043;-69
2022/12/11 07:25:42;;;;;;;6.05;3.90;;;153.60;2252.80;;;;;;4952210;29;20058;-62
2022/12/11 07:28:08;;;;;;;4.95;2.90;;;128.90;2252.80;;;;;;4951878;29;20122;-62
2022/12/11 07:30:34;;;;;;;7.65;4.28;;;128.90;2252.80;;;;;;4951835;29;20043;-63
2022/12/11 07:33:00;;;;;;;18.20;9.32;;;153.60;2252.80;;;;;;4952230;29;20078;-64
2022/12/11 07:35:25;;;;;;;11.32;6.40;;;128.90;2252.80;;;;;;4951995;29;20514;-67
2022/12/11 07:37:51;;;;;;;7.80;4.15;;;128.90;2252.80;;;;;;4952225;29;20027;-65
2022/12/11 07:40:17;;;;;;;4.13;2.60;;;128.90;2252.80;;;;;;4952040;29;20054;-68
2022/12/11 07:42:43;;;;;;;58.25;35.80;;;128.90;2252.80;;;;;;4951929;29;20045;-69
2022/12/11 07:45:09;;;;;;;9.68;6.88;;;128.90;2252.80;;;;;;4951770;29;20089;-61
2022/12/11 07:47:35;;;;;;;10.68;5.00;;;128.90;2252.80;;;;;;4951635;29;20055;-59
2022/12/11 07:50:00;;;;;;;19.02;9.88;;;128.90;2252.80;;;;;;4951715;29;20070;-67
2022/12/11 07:52:26;;;;;;;141.40;79.85;;;128.90;2252.80;;;;;;4952128;29;20549;-59
2022/12/11 07:54:52;;;;;;;9.90;5.45;;;153.60;2252.80;;;;;;4952271;29;20032;-66
2022/12/11 07:57:17;;;;;;;36.13;24.00;;;128.90;2252.80;;;;;;4951569;29;20086;-62
2022/12/11 07:59:43;;;;;;;6.40;3.28;;;153.60;2252.80;;;;;;4951822;29;20027;-68
2022/12/11 08:02:10;;;;;;;27.65;19.20;;;128.90;2252.80;;;;;;4951517;29;20027;-60
2022/12/11 08:04:36;;;;;;;12.90;8.82;;;153.60;2252.80;;;;;;4951766;29;20107;-67
2022/12/11 08:07:02;;;;;;;9.23;3.63;;;153.70;2252.80;;;;;;4951639;29;20031;-59
2022/12/11 08:09:28;;;;;;;6.40;4.25;;;153.80;2252.80;;;;;;4951500;29;20058;-69
2022/12/11 08:11:53;;;;;;;5.40;3.38;;;153.80;2252.80;;;;;;4951988;29;20667;-60
2022/12/11 08:14:19;;;;;;;38.90;24.35;;;153.80;2252.80;;;;;;4951722;29;20031;-59
2022/12/11 08:16:45;;;;;;;12.75;8.27;;;153.90;2252.80;;;;;;4952276;28;20028;-69
2022/12/11 08:19:12;;;;;;;16.05;8.50;;;153.90;2252.80;;;;;;4955219;29;20038;-58
2022/12/11 08:21:38;;;;;;;47.88;31.75;;;153.90;2252.80;;;;;;4954986;29;20027;-67
2022/12/11 08:24:04;;;;;;;11.85;10.57;;;153.90;2252.80;;;;;;4954764;29;20107;-63
2022/12/11 08:26:31;;;;;;;6.10;3.58;;;153.80;2252.80;;;;;;4955096;29;20143;-62
2022/12/11 08:28:57;;;;;;;9.52;6.13;;;153.90;2252.80;;;;;;4955080;29;20492;-62
2022/12/11 08:31:23;;;;;;;7.13;3.35;;;153.90;2252.80;;;;;;4955458;29;20397;-67
2022/12/11 08:33:50;;;;;;;6.88;3.90;;;154.10;2252.80;;;;;;4954986;29;20027;-62
2022/12/11 08:36:19;;;;;;;6.40;3.90;;;154.10;2252.80;;;;;;4962512;28;20050;-67
2022/12/11 08:38:45;;;;;;;7.20;5.25;;;154.10;2252.80;;;;;;4973955;28;20462;-63
2022/12/11 08:41:15;;;;;;;8.20;4.65;;;154.10;2252.80;;;;;;4974207;28;20027;-71
2022/12/11 08:43:42;;;;;;;7.63;5.32;;;154.10;2252.80;;;;;;4974293;28;20026;-66
2022/12/11 08:46:09;;;;;;;8.80;5.40;;;154.30;2252.80;;;;;;4974220;28;20027;-66
2022/12/11 08:48:36;;;;;;;10.00;5.78;;;154.30;2252.80;;;;;;4973870;28;20027;-65
2022/12/11 08:51:04;;;;;;;43.20;27.17;;;154.50;2252.80;;;;;;4973948;28;20039;-67
2022/12/11 08:53:30;;;;;;;9.68;7.25;;;179.20;2252.80;;;;;;4974867;28;20027;-59
2022/12/11 08:56:08;;;;;;;12.73;7.82;;;179.40;2252.80;;;;;;4973694;28;20047;-69
2022/12/11 08:58:34;;;;;;;9.93;6.72;;;179.30;2252.80;;;;;;4974113;28;20035;-68
2022/12/11 09:01:11;;;;;;;11.75;7.32;;;179.20;2252.80;;;;;;4974109;28;20070;-65
2022/12/11 09:03:38;;;;;;;8.60;6.45;;;179.20;2252.80;;;;;;4973923;28;20034;-66
2022/12/11 09:06:09;;;;;;;10.15;6.38;;;179.30;2252.80;;;;;;4973454;28;20034;-59
2022/12/11 09:08:35;;;;;;;12.73;6.70;;;179.30;2252.80;;;;;;4974035;28;20071;-60
2022/12/11 09:11:13;;;;;;;13.95;8.95;;;179.40;2252.80;;;;;;4973978;28;20039;-68
2022/12/11 09:13:40;;;;;;;7.88;5.80;;;179.40;2252.80;;;;;;4973832;28;20122;-61
2022/12/11 09:16:08;;;;;;;9.20;8.20;;;179.20;2252.80;;;;;;4973690;28;20031;-69
2022/12/11 09:18:35;;;;;;;8.52;5.22;;;179.30;2252.80;;;;;;4973449;28;20093;-66
2022/12/11 09:21:03;;;;;;;12.20;8.60;;;179.30;2252.80;;;;;;4973482;28;20042;-66
2022/12/11 09:23:30;;;;;;;32.78;19.48;;;179.50;2252.80;;;;;;4973333;28;20027;-63
2022/12/11 09:25:55;;;;;;;10.15;4.93;;;179.50;2252.80;;;;;;4973210;28;20022;-62
2022/12/11 09:28:21;;;;;;;9.10;5.35;;;179.40;2252.80;;;;;;4972698;28;20380;-60
2022/12/11 09:30:47;;;;;;;8.65;5.55;;;179.20;2252.80;;;;;;4972668;28;20039;-59
2022/12/11 09:33:13;;;;;;;8.93;6.80;;;179.20;2252.80;;;;;;4973320;28;20797;-71
2022/12/11 09:35:38;;;;;;;7.20;4.95;;;179.20;2252.80;;;;;;4973330;28;20030;-59
2022/12/11 09:38:04;;;;;;;15.20;9.88;;;154.50;2252.80;;;;;;4972746;28;20027;-69
2022/12/11 09:40:31;;;;;;;12.40;8.10;;;154.30;2252.80;;;;;;4975269;28;20772;-66
2022/12/11 09:43:05;;;;;;;14.70;10.55;;;154.40;2252.80;;;;;;4975346;28;20101;-66
2022/12/11 09:45:32;;;;;;;10.18;7.00;;;154.40;2252.80;;;;;;4973272;28;20085;-70
2022/12/11 09:47:59;;;;;;;9.60;5.53;;;154.40;2252.80;;;;;;4973200;28;20027;-68
2022/12/11 09:50:30;;;;;;;49.25;32.03;;;154.30;2252.80;;;;;;4974984;28;20038;-66
2022/12/11 09:53:15;;;;;;;265.23;136.18;;;154.40;2252.80;;;;;;4972887;28;20050;-66
2022/12/11 09:55:44;;;;;;;132.35;61.30;;;154.20;2252.80;;;;;;4972828;28;20035;-63
2022/12/11 09:58:42;;;;;;;122.20;59.15;;;154.30;2252.80;;;;;;4972263;28;20575;-67
2022/12/11 10:01:16;;;;;;;19.88;10.55;;;154.50;2252.80;;;;;;4968882;28;20043;-68
2022/12/11 10:04:06;;;;;;;81.55;35.40;;;179.30;2252.80;;;;;;4977693;28;20033;-58
2022/12/11 10:06:42;;;;;;;37.25;20.58;;;179.40;2252.80;;;;;;4972382;28;20077;-66
2022/12/11 10:09:26;;;;;;;9.45;5.40;;;179.60;2252.80;;;;;;4972353;28;20034;-63
2022/12/11 10:12:04;;;;;;;75.88;36.08;;;179.60;2252.80;;;;;;4972778;28;20035;-63
2022/12/11 10:14:55;;;;;;;241.07;105.30;;;179.70;2252.80;;;;;;4972246;28;20039;-55
2022/12/11 10:17:28;;;;;;;9.65;4.97;;;179.60;2252.80;;;;;;4972557;28;20027;-55
2022/12/11 10:20:04;;;;;;;19.25;12.02;;;179.70;2252.80;;;;;;4973150;28;20824;-60
2022/12/11 10:22:32;;;;;;;524.03;224.00;;;179.60;2252.80;;;;;;4972329;28;20106;-56
2022/12/11 10:25:04;;;;;;;162.50;67.20;;;179.40;2252.80;;;;;;4972138;28;20029;-57
2022/12/11 10:27:38;;;;;;;82.70;34.90;;;179.20;2252.80;;;;;;4973635;28;20109;-61
2022/12/11 10:30:21;;;;;;;277.90;109.63;;;179.20;2252.80;;;;;;4965953;28;20039;-62
2022/12/11 10:36:15;;;;;;;22.50;10.48;;;179.30;2252.80;;;;;;4987077;28;20070;-63
2022/12/11 10:38:44;;;;;;;15.45;11.70;;;179.30;2252.80;;;;;;4987431;28;20027;-61
2022/12/11 10:41:11;;;;;;;12.63;7.00;;;154.50;2252.80;;;;;;4975016;28;20038;-60
2022/12/11 10:43:49;;;;;;;10.57;6.95;;;154.30;2252.80;;;;;;4973890;28;20114;-58
2022/12/11 10:46:21;;;;;;;90.30;39.53;;;154.40;2252.80;;;;;;4971852;28;20088;-61
2022/12/11 10:49:00;;;;;;;11.73;6.95;;;154.30;2252.80;;;;;;4972077;28;20033;-61
2022/12/11 10:51:35;;;;;;;10.65;7.38;;;154.30;2252.80;;;;;;4969883;28;20069;-61
2022/12/11 10:54:07;;;;;;;13.52;9.13;;;154.30;2252.80;;;;;;4970180;28;20058;-60
2022/12/11 10:56:36;;;;;;;26.60;19.20;;;154.30;2252.80;;;;;;4970076;28;20057;-58
2022/12/11 10:59:02;;;;;;;33.20;17.67;;;154.40;2252.80;;;;;;4970084;28;20049;-57
2022/12/11 11:01:30;;;;;;;11.82;8.88;;;154.30;2252.80;;;;;;4969620;28;20399;-62
2022/12/11 11:04:01;;;;;;;30.30;18.23;;;154.10;2252.80;;;;;;4969195;28;20031;-61
2022/12/11 11:06:27;;;;;;;16.95;9.10;;;153.90;2252.80;;;;;;4968446;28;20030;-61
2022/12/11 11:08:58;;;;;;;31.73;17.92;;;153.90;2252.80;;;;;;4969000;28;20027;-61
2022/12/11 11:11:31;;;;;;;16.70;11.43;;;153.90;2252.80;;;;;;4969198;28;20090;-60
2022/12/11 11:14:17;;;;;;;20.10;11.68;;;154.00;2252.80;;;;;;4969182;28;20034;-61
2022/12/11 11:16:46;;;;;;;28.33;18.77;;;154.10;2252.80;;;;;;4969558;28;20579;-62
2022/12/11 11:19:31;;;;;;;38.00;24.10;;;154.10;2252.80;;;;;;4969940;28;20081;-57
2022/12/11 11:22:00;;;;;;;43.85;25.92;;;154.00;2252.80;;;;;;4969669;28;20516;-62
2022/12/11 11:24:35;;;;;;;18.55;11.80;;;154.10;2252.80;;;;;;4969685;28;20373;-62
2022/12/11 11:27:01;;;;;;;16.67;12.02;;;154.00;2252.80;;;;;;4970023;28;20381;-61
2022/12/11 11:29:32;;;;;;;15.25;8.80;;;154.00;2252.80;;;;;;4969003;28;20027;-56
2022/12/11 11:32:29;;;;;;;16.08;9.77;;;154.10;2252.80;;;;;;4969310;28;20402;-58
2022/12/11 11:35:10;;;;;;;19.63;13.27;;;154.20;2252.80;;;;;;4969322;28;20063;-55
2022/12/11 11:37:37;;;;;;;15.10;10.57;;;154.30;2252.80;;;;;;4969485;28;20070;-56
2022/12/11 11:40:27;;;;;;;21.83;13.75;;;154.20;2252.80;;;;;;4971154;28;20038;-61
2022/12/11 11:43:16;;;;;;;12.30;9.18;;;154.10;2252.80;;;;;;4971422;28;20038;-61
2022/12/11 11:45:54;;;;;;;20.90;13.25;;;154.00;2252.80;;;;;;4971215;28;20034;-58
2022/12/11 11:48:19;;;;;;;11.75;8.57;;;154.00;2252.80;;;;;;4971118;28;20093;-60
2022/12/11 11:50:49;;;;;;;35.67;22.98;;;154.00;2252.80;;;;;;4971244;28;20039;-56
2022/12/11 11:53:36;;;;;;;19.25;13.60;;;154.00;2252.80;;;;;;4975112;28;20138;-61
2022/12/11 11:56:25;;;;;;;23.05;15.27;;;153.90;2252.80;;;;;;4978833;28;20054;-55
2022/12/11 11:59:14;;;;;;;18.52;12.35;;;153.90;2252.80;;;;;;4994630;28;20084;-60
2022/12/11 12:01:41;;;;;;;17.88;10.32;;;153.90;2252.80;;;;;;4994454;28;20038;-60
2022/12/11 12:04:08;;;;;;;85.43;52.17;;;153.90;2252.80;;;;;;4994047;28;20023;-62
2022/12/11 12:06:57;;;;;;;20.20;10.63;;;153.90;2252.80;;;;;;4994229;28;20023;-61
2022/12/11 12:09:48;;;;;;;23.40;14.82;;;153.90;2252.80;;;;;;4994514;28;20034;-61
2022/12/11 12:13:07;;;;;;;17.73;12.15;;;154.00;2252.80;;;;;;4994462;28;20104;-61
2022/12/11 12:15:40;;;;;;;18.35;12.20;;;154.00;2252.80;;;;;;4915281;29;20095;-61
2022/12/11 12:18:23;;;;;;;24.52;14.60;;;154.00;2252.80;;;;;;4915120;29;20040;-60
2022/12/11 12:21:04;;;;;;;29.00;17.65;;;154.00;2252.80;;;;;;4914931;29;20040;-55
2022/12/11 12:23:30;;;;;;;21.08;14.55;;;153.80;2252.80;;;;;;4915003;29;20087;-57
2022/12/11 12:26:08;;;;;;;28.65;18.10;;;153.80;2252.80;;;;;;4914889;29;20044;-55
2022/12/11 12:28:33;;;;;;;54.92;30.08;;;154.00;2252.80;;;;;;4914982;29;20137;-61
2022/12/11 12:31:20;;;;;;;72.82;46.58;;;154.10;2252.80;;;;;;4914942;29;20048;-56
2022/12/11 12:33:52;;;;;;;46.35;28.45;;;154.10;2252.80;;;;;;4914696;29;20036;-55
2022/12/11 12:36:34;;;;;;;55.17;34.28;;;154.00;2252.80;;;;;;4914558;29;20044;-61